sensor_id;sensor_type;location;lat;lon;timestamp;temperature;humidity
38131;DHT22;23947;51.894;4.622;2023-03-19T00:01:25;10.70;1.40
38131;DHT22;23947;51.894;4.622;2023-03-19T00:03:51;10.70;1.40
38131;DHT22;23947;51.894;4.622;2023-03-19T00:06:16;10.70;1.40
38131;DHT22;23947;51.894;4.622;2023-03-19T00:08:42;10.70;1.40
38131;DHT22;23947;51.894;4.622;2023-03-19T00:11:09;10.60;1.40
38131;DHT22;23947;51.894;4.622;2023-03-19T00:13:34;10.60;1.40
38131;DHT22;23947;51.894;4.622;2023-03-19T00:16:00;10.60;1.40
38131;DHT22;23947;51.894;4.622;2023-03-19T00:18:26;10.60;1.40
38131;DHT22;23947;51.894;4.622;2023-03-19T00:20:51;10.60;1.40
38131;DHT22;23947;51.894;4.622;2023-03-19T00:23:17;10.60;1.40
38131;DHT22;23947;51.894;4.622;2023-03-19T00:25:42;10.60;1.40
38131;DHT22;23947;51.894;4.622;2023-03-19T00:28:08;10.60;1.40
38131;DHT22;23947;51.894;4.622;2023-03-19T00:30:34;10.60;1.40
38131;DHT22;23947;51.894;4.622;2023-03-19T00:33:00;10.60;1.40
38131;DHT22;23947;51.894;4.622;2023-03-19T00:35:26;10.60;1.40
38131;DHT22;23947;51.894;4.622;2023-03-19T00:37:52;10.60;1.40
38131;DHT22;23947;51.894;4.622;2023-03-19T00:40:17;10.60;1.40
38131;DHT22;23947;51.894;4.622;2023-03-19T00:42:43;10.60;1.40
38131;DHT22;23947;51.894;4.622;2023-03-19T00:45:09;10.60;1.40
38131;DHT22;23947;51.894;4.622;2023-03-19T00:47:35;10.60;1.40
38131;DHT22;23947;51.894;4.622;2023-03-19T00:50:01;10.50;1.40
38131;DHT22;23947;51.894;4.622;2023-03-19T00:52:26;10.50;1.40
38131;DHT22;23947;51.894;4.622;2023-03-19T00:54:52;10.50;1.40
38131;DHT22;23947;51.894;4.622;2023-03-19T00:57:17;10.50;1.40
38131;DHT22;23947;51.894;4.622;2023-03-19T00:59:43;10.50;1.40
38131;DHT22;23947;51.894;4.622;2023-03-19T01:02:08;10.40;1.40
38131;DHT22;23947;51.894;4.622;2023-03-19T01:04:34;10.40;1.40
38131;DHT22;23947;51.894;4.622;2023-03-19T01:06:59;10.40;1.40
38131;DHT22;23947;51.894;4.622;2023-03-19T01:09:25;10.40;1.40
38131;DHT22;23947;51.894;4.622;2023-03-19T01:11:51;10.40;1.40
38131;DHT22;23947;51.894;4.622;2023-03-19T01:14:16;10.30;1.40
38131;DHT22;23947;51.894;4.622;2023-03-19T01:16:42;10.30;1.40
38131;DHT22;23947;51.894;4.622;2023-03-19T01:19:07;10.30;1.40
38131;DHT22;23947;51.894;4.622;2023-03-19T01:21:33;10.20;1.40
38131;DHT22;23947;51.894;4.622;2023-03-19T01:24:00;10.20;1.40
38131;DHT22;23947;51.894;4.622;2023-03-19T01:26:26;10.20;1.40
38131;DHT22;23947;51.894;4.622;2023-03-19T01:28:52;10.10;1.40
38131;DHT22;23947;51.894;4.622;2023-03-19T01:31:17;10.00;1.40
38131;DHT22;23947;51.894;4.622;2023-03-19T01:33:43;10.00;1.40
38131;DHT22;23947;51.894;4.622;2023-03-19T01:36:09;10.00;1.40
38131;DHT22;23947;51.894;4.622;2023-03-19T01:38:35;9.90;1.40
38131;DHT22;23947;51.894;4.622;2023-03-19T01:41:00;9.90;1.40
38131;DHT22;23947;51.894;4.622;2023-03-19T01:43:27;9.80;1.40
38131;DHT22;23947;51.894;4.622;2023-03-19T01:45:58;9.80;1.40
38131;DHT22;23947;51.894;4.622;2023-03-19T01:48:36;9.80;1.40
38131;DHT22;23947;51.894;4.622;2023-03-19T01:51:03;9.80;1.40
38131;DHT22;23947;51.894;4.622;2023-03-19T01:53:31;9.80;1.40
38131;DHT22;23947;51.894;4.622;2023-03-19T01:56:02;9.80;1.40
38131;DHT22;23947;51.894;4.622;2023-03-19T01:58:28;9.80;1.40
38131;DHT22;23947;51.894;4.622;2023-03-19T02:00:54;9.70;1.40
38131;DHT22;23947;51.894;4.622;2023-03-19T02:03:20;9.70;1.40
38131;DHT22;23947;51.894;4.622;2023-03-19T02:05:46;9.70;1.40
38131;DHT22;23947;51.894;4.622;2023-03-19T02:08:13;9.70;1.40
38131;DHT22;23947;51.894;4.622;2023-03-19T02:10:40;9.70;1.40
38131;DHT22;23947;51.894;4.622;2023-03-19T02:13:06;9.70;1.40
38131;DHT22;23947;51.894;4.622;2023-03-19T02:15:32;9.80;1.40
38131;DHT22;23947;51.894;4.622;2023-03-19T02:17:58;9.70;1.40
38131;DHT22;23947;51.894;4.622;2023-03-19T02:23:13;9.70;1.40
38131;DHT22;23947;51.894;4.622;2023-03-19T02:26:02;9.70;1.40
38131;DHT22;23947;51.894;4.622;2023-03-19T02:28:26;9.60;1.40
38131;DHT22;23947;51.894;4.622;2023-03-19T02:30:51;9.60;1.40
38131;DHT22;23947;51.894;4.622;2023-03-19T02:33:17;9.50;1.40
38131;DHT22;23947;51.894;4.622;2023-03-19T02:35:44;9.50;1.40
38131;DHT22;23947;51.894;4.622;2023-03-19T02:38:11;9.50;1.40
38131;DHT22;23947;51.894;4.622;2023-03-19T02:40:58;9.40;1.40
38131;DHT22;23947;51.894;4.622;2023-03-19T02:43:22;9.40;1.40
38131;DHT22;23947;51.894;4.622;2023-03-19T02:45:47;9.40;1.40
38131;DHT22;23947;51.894;4.622;2023-03-19T02:48:13;9.30;1.40
38131;DHT22;23947;51.894;4.622;2023-03-19T02:50:38;9.30;1.40
38131;DHT22;23947;51.894;4.622;2023-03-19T02:53:04;9.30;1.40
38131;DHT22;23947;51.894;4.622;2023-03-19T02:55:29;9.30;1.40
38131;DHT22;23947;51.894;4.622;2023-03-19T02:57:55;9.40;1.40
38131;DHT22;23947;51.894;4.622;2023-03-19T03:00:20;9.40;1.40
38131;DHT22;23947;51.894;4.622;2023-03-19T03:02:46;9.50;1.40
38131;DHT22;23947;51.894;4.622;2023-03-19T03:05:12;9.50;1.40
38131;DHT22;23947;51.894;4.622;2023-03-19T03:07:38;9.50;1.40
38131;DHT22;23947;51.894;4.622;2023-03-19T03:10:05;9.40;1.40
38131;DHT22;23947;51.894;4.622;2023-03-19T03:12:30;9.30;1.40
38131;DHT22;23947;51.894;4.622;2023-03-19T03:14:56;9.30;1.40
38131;DHT22;23947;51.894;4.622;2023-03-19T03:17:22;9.30;1.40
38131;DHT22;23947;51.894;4.622;2023-03-19T03:19:48;9.30;1.40
38131;DHT22;23947;51.894;4.622;2023-03-19T03:22:13;9.30;1.40
38131;DHT22;23947;51.894;4.622;2023-03-19T03:24:39;9.30;1.40
38131;DHT22;23947;51.894;4.622;2023-03-19T03:27:05;9.30;1.40
38131;DHT22;23947;51.894;4.622;2023-03-19T03:29:31;9.20;1.40
38131;DHT22;23947;51.894;4.622;2023-03-19T03:31:56;9.20;1.40
38131;DHT22;23947;51.894;4.622;2023-03-19T03:34:22;9.20;1.40
38131;DHT22;23947;51.894;4.622;2023-03-19T03:36:47;9.10;1.40
38131;DHT22;23947;51.894;4.622;2023-03-19T03:39:13;9.10;1.40
38131;DHT22;23947;51.894;4.622;2023-03-19T03:41:38;9.10;1.40
38131;DHT22;23947;51.894;4.622;2023-03-19T03:44:04;9.10;1.40
38131;DHT22;23947;51.894;4.622;2023-03-19T03:46:30;9.10;1.40
38131;DHT22;23947;51.894;4.622;2023-03-19T03:48:55;9.00;1.40
38131;DHT22;23947;51.894;4.622;2023-03-19T03:51:21;9.00;1.40
38131;DHT22;23947;51.894;4.622;2023-03-19T03:53:46;9.00;1.40
38131;DHT22;23947;51.894;4.622;2023-03-19T03:56:12;9.00;1.40
38131;DHT22;23947;51.894;4.622;2023-03-19T03:58:38;9.10;1.40
38131;DHT22;23947;51.894;4.622;2023-03-19T04:01:03;9.10;1.40
38131;DHT22;23947;51.894;4.622;2023-03-19T04:03:30;9.10;1.40
38131;DHT22;23947;51.894;4.622;2023-03-19T04:05:55;9.10;1.40
38131;DHT22;23947;51.894;4.622;2023-03-19T04:08:21;9.10;1.40
38131;DHT22;23947;51.894;4.622;2023-03-19T04:10:47;9.00;1.40
38131;DHT22;23947;51.894;4.622;2023-03-19T04:13:13;9.00;1.40
38131;DHT22;23947;51.894;4.622;2023-03-19T04:15:40;9.00;1.40
38131;DHT22;23947;51.894;4.622;2023-03-19T04:18:06;9.00;1.40
38131;DHT22;23947;51.894;4.622;2023-03-19T04:20:31;8.90;1.40
38131;DHT22;23947;51.894;4.622;2023-03-19T04:22:57;8.90;1.40
38131;DHT22;23947;51.894;4.622;2023-03-19T04:25:22;8.90;1.40
38131;DHT22;23947;51.894;4.622;2023-03-19T04:27:48;8.90;1.40
38131;DHT22;23947;51.894;4.622;2023-03-19T04:30:13;8.80;1.40
38131;DHT22;23947;51.894;4.622;2023-03-19T04:32:39;8.90;1.40
38131;DHT22;23947;51.894;4.622;2023-03-19T04:35:05;8.80;1.40
38131;DHT22;23947;51.894;4.622;2023-03-19T04:37:30;8.80;1.40
38131;DHT22;23947;51.894;4.622;2023-03-19T04:39:56;8.80;1.40
38131;DHT22;23947;51.894;4.622;2023-03-19T04:42:22;8.80;1.40
38131;DHT22;23947;51.894;4.622;2023-03-19T04:44:47;8.80;1.40
38131;DHT22;23947;51.894;4.622;2023-03-19T04:47:13;8.80;1.40
38131;DHT22;23947;51.894;4.622;2023-03-19T04:49:39;8.70;1.40
38131;DHT22;23947;51.894;4.622;2023-03-19T04:52:04;8.70;1.40
38131;DHT22;23947;51.894;4.622;2023-03-19T04:54:30;8.70;1.40
38131;DHT22;23947;51.894;4.622;2023-03-19T04:56:56;8.70;1.40
38131;DHT22;23947;51.894;4.622;2023-03-19T04:59:21;8.70;1.40
38131;DHT22;23947;51.894;4.622;2023-03-19T05:01:47;8.70;1.40
38131;DHT22;23947;51.894;4.622;2023-03-19T05:04:12;8.70;1.40
38131;DHT22;23947;51.894;4.622;2023-03-19T05:06:38;8.70;1.40
38131;DHT22;23947;51.894;4.622;2023-03-19T05:09:04;8.60;1.40
38131;DHT22;23947;51.894;4.622;2023-03-19T05:11:30;8.60;1.40
38131;DHT22;23947;51.894;4.622;2023-03-19T05:13:56;8.60;1.40
38131;DHT22;23947;51.894;4.622;2023-03-19T05:16:22;8.60;1.40
38131;DHT22;23947;51.894;4.622;2023-03-19T05:18:47;8.50;1.40
38131;DHT22;23947;51.894;4.622;2023-03-19T05:21:13;8.50;1.40
38131;DHT22;23947;51.894;4.622;2023-03-19T05:23:39;8.50;1.40
38131;DHT22;23947;51.894;4.622;2023-03-19T05:26:04;8.50;1.40
38131;DHT22;23947;51.894;4.622;2023-03-19T05:28:31;8.40;1.40
38131;DHT22;23947;51.894;4.622;2023-03-19T05:30:56;8.40;1.40
38131;DHT22;23947;51.894;4.622;2023-03-19T05:33:22;8.60;1.40
38131;DHT22;23947;51.894;4.622;2023-03-19T05:35:48;8.50;1.40
38131;DHT22;23947;51.894;4.622;2023-03-19T05:38:13;8.50;1.40
38131;DHT22;23947;51.894;4.622;2023-03-19T05:40:39;8.40;1.40
38131;DHT22;23947;51.894;4.622;2023-03-19T05:43:06;8.40;1.40
38131;DHT22;23947;51.894;4.622;2023-03-19T05:45:33;8.50;1.40
38131;DHT22;23947;51.894;4.622;2023-03-19T05:48:00;8.40;1.40
38131;DHT22;23947;51.894;4.622;2023-03-19T05:50:26;8.40;1.40
38131;DHT22;23947;51.894;4.622;2023-03-19T05:52:51;8.30;1.40
38131;DHT22;23947;51.894;4.622;2023-03-19T05:55:17;8.30;1.40
38131;DHT22;23947;51.894;4.622;2023-03-19T05:57:42;8.30;1.40
38131;DHT22;23947;51.894;4.622;2023-03-19T06:00:08;8.20;1.40
38131;DHT22;23947;51.894;4.622;2023-03-19T06:02:34;8.20;1.40
38131;DHT22;23947;51.894;4.622;2023-03-19T06:05:00;8.10;1.40
38131;DHT22;23947;51.894;4.622;2023-03-19T06:07:25;8.20;1.40
38131;DHT22;23947;51.894;4.622;2023-03-19T06:09:51;8.20;1.40
38131;DHT22;23947;51.894;4.622;2023-03-19T06:12:16;8.20;1.40
38131;DHT22;23947;51.894;4.622;2023-03-19T06:14:42;8.10;1.40
38131;DHT22;23947;51.894;4.622;2023-03-19T06:17:07;8.10;1.40
38131;DHT22;23947;51.894;4.622;2023-03-19T06:19:34;8.00;1.40
38131;DHT22;23947;51.894;4.622;2023-03-19T06:21:59;8.00;1.40
38131;DHT22;23947;51.894;4.622;2023-03-19T06:24:25;8.10;1.40
38131;DHT22;23947;51.894;4.622;2023-03-19T06:26:50;8.10;1.40
38131;DHT22;23947;51.894;4.622;2023-03-19T06:29:16;8.10;1.40
38131;DHT22;23947;51.894;4.622;2023-03-19T06:31:41;8.00;1.40
38131;DHT22;23947;51.894;4.622;2023-03-19T06:34:08;8.10;1.40
38131;DHT22;23947;51.894;4.622;2023-03-19T06:36:33;8.00;1.40
38131;DHT22;23947;51.894;4.622;2023-03-19T06:38:59;8.10;1.40
38131;DHT22;23947;51.894;4.622;2023-03-19T06:41:25;8.20;1.40
38131;DHT22;23947;51.894;4.622;2023-03-19T06:43:50;8.10;1.40
38131;DHT22;23947;51.894;4.622;2023-03-19T06:46:16;8.10;1.40
38131;DHT22;23947;51.894;4.622;2023-03-19T06:48:42;8.20;1.40
38131;DHT22;23947;51.894;4.622;2023-03-19T06:51:07;8.30;1.40
38131;DHT22;23947;51.894;4.622;2023-03-19T06:53:33;8.30;1.40
38131;DHT22;23947;51.894;4.622;2023-03-19T06:55:58;8.30;1.40
38131;DHT22;23947;51.894;4.622;2023-03-19T06:58:24;8.30;1.40
38131;DHT22;23947;51.894;4.622;2023-03-19T07:00:49;8.30;1.40
38131;DHT22;23947;51.894;4.622;2023-03-19T07:03:15;8.40;1.40
38131;DHT22;23947;51.894;4.622;2023-03-19T07:05:40;8.40;1.40
38131;DHT22;23947;51.894;4.622;2023-03-19T07:08:06;8.50;1.40
38131;DHT22;23947;51.894;4.622;2023-03-19T07:10:38;8.40;1.40
38131;DHT22;23947;51.894;4.622;2023-03-19T07:13:04;8.50;1.40
38131;DHT22;23947;51.894;4.622;2023-03-19T07:15:29;8.50;1.40
38131;DHT22;23947;51.894;4.622;2023-03-19T07:17:55;8.50;1.40
38131;DHT22;23947;51.894;4.622;2023-03-19T07:20:21;8.50;1.40
38131;DHT22;23947;51.894;4.622;2023-03-19T07:22:49;8.50;1.40
38131;DHT22;23947;51.894;4.622;2023-03-19T07:25:14;8.50;1.40
38131;DHT22;23947;51.894;4.622;2023-03-19T07:27:40;8.50;1.40
38131;DHT22;23947;51.894;4.622;2023-03-19T07:30:05;8.50;1.40
38131;DHT22;23947;51.894;4.622;2023-03-19T07:32:31;8.50;1.40
38131;DHT22;23947;51.894;4.622;2023-03-19T07:34:57;8.50;1.40
38131;DHT22;23947;51.894;4.622;2023-03-19T07:37:22;8.60;1.40
38131;DHT22;23947;51.894;4.622;2023-03-19T07:39:48;8.60;1.40
38131;DHT22;23947;51.894;4.622;2023-03-19T07:42:13;8.70;1.40
38131;DHT22;23947;51.894;4.622;2023-03-19T07:44:39;8.80;1.40
38131;DHT22;23947;51.894;4.622;2023-03-19T07:47:04;8.80;1.40
38131;DHT22;23947;51.894;4.622;2023-03-19T07:49:30;8.80;1.40
38131;DHT22;23947;51.894;4.622;2023-03-19T07:51:56;8.70;1.40
38131;DHT22;23947;51.894;4.622;2023-03-19T07:54:21;8.70;1.40
38131;DHT22;23947;51.894;4.622;2023-03-19T07:56:47;8.70;1.40
38131;DHT22;23947;51.894;4.622;2023-03-19T07:59:13;8.70;1.40
38131;DHT22;23947;51.894;4.622;2023-03-19T08:01:39;8.60;1.40
38131;DHT22;23947;51.894;4.622;2023-03-19T08:04:04;8.70;1.40
38131;DHT22;23947;51.894;4.622;2023-03-19T08:06:30;8.70;1.40
38131;DHT22;23947;51.894;4.622;2023-03-19T08:08:55;8.70;1.40
38131;DHT22;23947;51.894;4.622;2023-03-19T08:11:21;8.80;1.40
38131;DHT22;23947;51.894;4.622;2023-03-19T08:13:46;8.90;1.40
38131;DHT22;23947;51.894;4.622;2023-03-19T08:16:12;8.90;1.40
38131;DHT22;23947;51.894;4.622;2023-03-19T08:18:37;8.90;1.40
38131;DHT22;23947;51.894;4.622;2023-03-19T08:21:03;8.90;1.40
38131;DHT22;23947;51.894;4.622;2023-03-19T08:23:29;9.00;1.40
38131;DHT22;23947;51.894;4.622;2023-03-19T08:25:54;8.90;1.40
38131;DHT22;23947;51.894;4.622;2023-03-19T08:28:21;8.90;1.40
38131;DHT22;23947;51.894;4.622;2023-03-19T08:30:47;9.00;1.40
38131;DHT22;23947;51.894;4.622;2023-03-19T08:33:12;9.00;1.40
38131;DHT22;23947;51.894;4.622;2023-03-19T08:35:38;9.00;1.40
38131;DHT22;23947;51.894;4.622;2023-03-19T08:38:03;9.00;1.40
38131;DHT22;23947;51.894;4.622;2023-03-19T08:40:29;9.00;1.40
38131;DHT22;23947;51.894;4.622;2023-03-19T08:42:55;9.00;1.40
38131;DHT22;23947;51.894;4.622;2023-03-19T08:45:21;8.90;1.40
38131;DHT22;23947;51.894;4.622;2023-03-19T08:47:47;9.00;1.40
38131;DHT22;23947;51.894;4.622;2023-03-19T08:50:13;9.00;1.40
38131;DHT22;23947;51.894;4.622;2023-03-19T08:52:39;9.00;1.40
38131;DHT22;23947;51.894;4.622;2023-03-19T08:55:04;9.10;1.40
38131;DHT22;23947;51.894;4.622;2023-03-19T08:57:30;9.10;1.40
38131;DHT22;23947;51.894;4.622;2023-03-19T08:59:56;9.10;1.40
38131;DHT22;23947;51.894;4.622;2023-03-19T09:02:22;9.20;1.40
38131;DHT22;23947;51.894;4.622;2023-03-19T09:04:47;9.20;1.40
38131;DHT22;23947;51.894;4.622;2023-03-19T09:07:13;9.20;1.40
38131;DHT22;23947;51.894;4.622;2023-03-19T09:09:40;9.30;1.40
38131;DHT22;23947;51.894;4.622;2023-03-19T09:12:07;9.20;1.40
38131;DHT22;23947;51.894;4.622;2023-03-19T09:14:33;9.20;1.40
38131;DHT22;23947;51.894;4.622;2023-03-19T09:16:58;9.20;1.40
38131;DHT22;23947;51.894;4.622;2023-03-19T09:19:24;9.10;1.40
38131;DHT22;23947;51.894;4.622;2023-03-19T09:21:50;9.10;1.40
38131;DHT22;23947;51.894;4.622;2023-03-19T09:24:16;9.10;1.40
38131;DHT22;23947;51.894;4.622;2023-03-19T09:26:41;9.00;1.40
38131;DHT22;23947;51.894;4.622;2023-03-19T09:29:07;9.10;1.40
38131;DHT22;23947;51.894;4.622;2023-03-19T09:31:33;9.10;1.40
38131;DHT22;23947;51.894;4.622;2023-03-19T09:33:58;9.20;1.40
38131;DHT22;23947;51.894;4.622;2023-03-19T09:36:24;9.30;1.40
38131;DHT22;23947;51.894;4.622;2023-03-19T09:38:50;9.40;1.40
38131;DHT22;23947;51.894;4.622;2023-03-19T09:44:00;9.50;1.40
38131;DHT22;23947;51.894;4.622;2023-03-19T09:46:37;9.50;1.40
38131;DHT22;23947;51.894;4.622;2023-03-19T09:51:49;9.60;1.40
38131;DHT22;23947;51.894;4.622;2023-03-19T09:54:32;9.60;1.40
38131;DHT22;23947;51.894;4.622;2023-03-19T09:56:59;9.60;1.40
38131;DHT22;23947;51.894;4.622;2023-03-19T09:59:26;9.60;1.40
38131;DHT22;23947;51.894;4.622;2023-03-19T10:01:54;9.60;1.40
38131;DHT22;23947;51.894;4.622;2023-03-19T10:06:52;9.60;1.40
38131;DHT22;23947;51.894;4.622;2023-03-19T10:17:09;9.60;1.40
38131;DHT22;23947;51.894;4.622;2023-03-19T10:19:42;9.60;1.40
38131;DHT22;23947;51.894;4.622;2023-03-19T10:22:21;9.60;1.40
38131;DHT22;23947;51.894;4.622;2023-03-19T10:24:47;9.70;1.40
38131;DHT22;23947;51.894;4.622;2023-03-19T10:27:15;9.80;1.40
38131;DHT22;23947;51.894;4.622;2023-03-19T10:29:41;9.80;1.40
38131;DHT22;23947;51.894;4.622;2023-03-19T10:32:17;9.70;1.40
38131;DHT22;23947;51.894;4.622;2023-03-19T10:37:22;9.70;1.40
38131;DHT22;23947;51.894;4.622;2023-03-19T10:39:50;9.80;1.40
38131;DHT22;23947;51.894;4.622;2023-03-19T10:44:48;9.90;1.40
38131;DHT22;23947;51.894;4.622;2023-03-19T10:47:15;10.00;1.40
38131;DHT22;23947;51.894;4.622;2023-03-19T10:49:41;10.00;1.40
38131;DHT22;23947;51.894;4.622;2023-03-19T10:54:42;10.10;1.40
38131;DHT22;23947;51.894;4.622;2023-03-19T10:57:17;10.20;1.40
38131;DHT22;23947;51.894;4.622;2023-03-19T10:59:45;10.30;1.40
38131;DHT22;23947;51.894;4.622;2023-03-19T11:02:21;10.30;1.40
38131;DHT22;23947;51.894;4.622;2023-03-19T11:04:47;10.40;1.40
38131;DHT22;23947;51.894;4.622;2023-03-19T11:07:14;10.40;1.40
38131;DHT22;23947;51.894;4.622;2023-03-19T11:09:48;10.50;1.40
38131;DHT22;23947;51.894;4.622;2023-03-19T11:14:40;10.60;1.40
38131;DHT22;23947;51.894;4.622;2023-03-19T11:19:56;10.90;1.40
38131;DHT22;23947;51.894;4.622;2023-03-19T11:22:43;11.00;1.40
38131;DHT22;23947;51.894;4.622;2023-03-19T11:25:18;11.00;1.40
38131;DHT22;23947;51.894;4.622;2023-03-19T11:38:27;11.20;1.40
38131;DHT22;23947;51.894;4.622;2023-03-19T11:41:16;11.30;1.40
38131;DHT22;23947;51.894;4.622;2023-03-19T11:43:52;11.30;1.40
38131;DHT22;23947;51.894;4.622;2023-03-19T11:46:25;11.30;1.40
38131;DHT22;23947;51.894;4.622;2023-03-19T11:51:25;11.20;1.40
38131;DHT22;23947;51.894;4.622;2023-03-19T11:54:01;11.20;1.40
38131;DHT22;23947;51.894;4.622;2023-03-19T11:56:31;11.30;1.40
38131;DHT22;23947;51.894;4.622;2023-03-19T12:10:15;12.40;1.40
38131;DHT22;23947;51.894;4.622;2023-03-19T12:15:19;12.50;1.40
38131;DHT22;23947;51.894;4.622;2023-03-19T12:22:52;12.80;1.40
38131;DHT22;23947;51.894;4.622;2023-03-19T12:25:23;13.10;1.40
38131;DHT22;23947;51.894;4.622;2023-03-19T12:35:46;13.80;1.40
38131;DHT22;23947;51.894;4.622;2023-03-19T12:43:18;13.50;1.40
38131;DHT22;23947;51.894;4.622;2023-03-19T12:45:46;13.40;1.40
38131;DHT22;23947;51.894;4.622;2023-03-19T12:48:19;13.70;1.40
38131;DHT22;23947;51.894;4.622;2023-03-19T12:50:47;14.20;1.40
38131;DHT22;23947;51.894;4.622;2023-03-19T12:53:17;14.80;1.40
38131;DHT22;23947;51.894;4.622;2023-03-19T12:55:48;14.70;1.40
38131;DHT22;23947;51.894;4.622;2023-03-19T12:58:21;14.60;1.40
38131;DHT22;23947;51.894;4.622;2023-03-19T13:01:02;14.60;1.40
38131;DHT22;23947;51.894;4.622;2023-03-19T13:04:16;14.70;1.40
38131;DHT22;23947;51.894;4.622;2023-03-19T13:08:48;13.90;1.40
38131;DHT22;23947;51.894;4.622;2023-03-19T13:11:19;13.60;1.40
38131;DHT22;23947;51.894;4.622;2023-03-19T13:16:37;13.40;1.40
38131;DHT22;23947;51.894;4.622;2023-03-19T13:19:09;13.20;1.40
38131;DHT22;23947;51.894;4.622;2023-03-19T13:21:37;13.10;1.40
38131;DHT22;23947;51.894;4.622;2023-03-19T13:26:33;12.80;1.40
38131;DHT22;23947;51.894;4.622;2023-03-19T13:29:00;12.70;1.40
38131;DHT22;23947;51.894;4.622;2023-03-19T13:31:27;12.70;1.40
38131;DHT22;23947;51.894;4.622;2023-03-19T13:34:04;12.80;1.40
38131;DHT22;23947;51.894;4.622;2023-03-19T13:36:30;12.90;1.40
38131;DHT22;23947;51.894;4.622;2023-03-19T13:38:59;13.30;1.40
38131;DHT22;23947;51.894;4.622;2023-03-19T13:43:57;13.70;1.40
38131;DHT22;23947;51.894;4.622;2023-03-19T13:46:33;13.40;1.40
38131;DHT22;23947;51.894;4.622;2023-03-19T13:49:21;13.10;1.40
38131;DHT22;23947;51.894;4.622;2023-03-19T13:51:48;13.10;1.40
38131;DHT22;23947;51.894;4.622;2023-03-19T13:54:15;12.90;1.40
38131;DHT22;23947;51.894;4.622;2023-03-19T13:59:24;12.40;1.40
38131;DHT22;23947;51.894;4.622;2023-03-19T14:01:51;12.50;1.40
38131;DHT22;23947;51.894;4.622;2023-03-19T14:04:17;12.50;1.40
38131;DHT22;23947;51.894;4.622;2023-03-19T14:06:54;12.40;1.40
38131;DHT22;23947;51.894;4.622;2023-03-19T14:09:31;12.30;1.40
38131;DHT22;23947;51.894;4.622;2023-03-19T14:12:08;12.40;1.40
38131;DHT22;23947;51.894;4.622;2023-03-19T14:14:38;12.50;1.40
38131;DHT22;23947;51.894;4.622;2023-03-19T14:17:04;12.60;1.40
38131;DHT22;23947;51.894;4.622;2023-03-19T14:19:29;12.50;1.40
38131;DHT22;23947;51.894;4.622;2023-03-19T14:24:34;12.10;1.40
38131;DHT22;23947;51.894;4.622;2023-03-19T14:27:01;12.20;1.40
38131;DHT22;23947;51.894;4.622;2023-03-19T14:29:27;12.20;1.40
38131;DHT22;23947;51.894;4.622;2023-03-19T14:31:58;12.10;1.40
38131;DHT22;23947;51.894;4.622;2023-03-19T14:36:55;11.60;1.40
38131;DHT22;23947;51.894;4.622;2023-03-19T14:39:25;11.50;1.40
38131;DHT22;23947;51.894;4.622;2023-03-19T14:41:58;11.40;1.40
38131;DHT22;23947;51.894;4.622;2023-03-19T14:52:19;10.90;1.40
38131;DHT22;23947;51.894;4.622;2023-03-19T14:54:50;10.90;1.40
38131;DHT22;23947;51.894;4.622;2023-03-19T14:57:18;10.80;1.40
38131;DHT22;23947;51.894;4.622;2023-03-19T14:59:44;10.70;1.40
38131;DHT22;23947;51.894;4.622;2023-03-19T15:04:51;10.70;1.40
38131;DHT22;23947;51.894;4.622;2023-03-19T15:07:19;10.60;1.40
38131;DHT22;23947;51.894;4.622;2023-03-19T15:09:46;10.60;1.40
38131;DHT22;23947;51.894;4.622;2023-03-19T15:14:50;10.60;1.40
38131;DHT22;23947;51.894;4.622;2023-03-19T15:19:43;10.60;1.40
38131;DHT22;23947;51.894;4.622;2023-03-19T15:22:13;10.50;1.40
38131;DHT22;23947;51.894;4.622;2023-03-19T15:24:40;10.50;1.40
38131;DHT22;23947;51.894;4.622;2023-03-19T15:27:21;10.50;1.40
38131;DHT22;23947;51.894;4.622;2023-03-19T15:29:48;10.50;1.40
38131;DHT22;23947;51.894;4.622;2023-03-19T15:34:58;10.40;1.40
38131;DHT22;23947;51.894;4.622;2023-03-19T15:37:24;10.40;1.40
38131;DHT22;23947;51.894;4.622;2023-03-19T15:39:50;10.50;1.40
38131;DHT22;23947;51.894;4.622;2023-03-19T15:42:18;10.50;1.40
38131;DHT22;23947;51.894;4.622;2023-03-19T15:44:46;10.60;1.40
38131;DHT22;23947;51.894;4.622;2023-03-19T15:47:15;10.60;1.40
38131;DHT22;23947;51.894;4.622;2023-03-19T15:49:43;10.60;1.40
38131;DHT22;23947;51.894;4.622;2023-03-19T15:52:14;10.70;1.40
38131;DHT22;23947;51.894;4.622;2023-03-19T15:54:40;10.70;1.40
38131;DHT22;23947;51.894;4.622;2023-03-19T15:57:06;10.60;1.40
38131;DHT22;23947;51.894;4.622;2023-03-19T15:59:33;10.60;1.40
38131;DHT22;23947;51.894;4.622;2023-03-19T16:01:59;10.60;1.40
38131;DHT22;23947;51.894;4.622;2023-03-19T16:04:25;10.50;1.40
38131;DHT22;23947;51.894;4.622;2023-03-19T16:06:53;10.50;1.40
38131;DHT22;23947;51.894;4.622;2023-03-19T16:09:31;10.50;1.40
38131;DHT22;23947;51.894;4.622;2023-03-19T16:11:57;10.60;1.40
38131;DHT22;23947;51.894;4.622;2023-03-19T16:17:01;10.10;1.40
38131;DHT22;23947;51.894;4.622;2023-03-19T16:19:37;10.00;1.40
38131;DHT22;23947;51.894;4.622;2023-03-19T16:22:13;10.00;1.40
38131;DHT22;23947;51.894;4.622;2023-03-19T16:24:39;10.10;1.40
38131;DHT22;23947;51.894;4.622;2023-03-19T16:27:08;10.10;1.40
38131;DHT22;23947;51.894;4.622;2023-03-19T16:29:45;10.20;1.40
38131;DHT22;23947;51.894;4.622;2023-03-19T16:32:21;10.20;1.40
38131;DHT22;23947;51.894;4.622;2023-03-19T16:34:51;10.20;1.40
38131;DHT22;23947;51.894;4.622;2023-03-19T16:37:25;10.00;1.40
38131;DHT22;23947;51.894;4.622;2023-03-19T16:40:35;9.90;1.40
38131;DHT22;23947;51.894;4.622;2023-03-19T16:42:41;9.80;1.40
38131;DHT22;23947;51.894;4.622;2023-03-19T16:47:38;9.90;1.40
38131;DHT22;23947;51.894;4.622;2023-03-19T16:50:04;9.80;1.40
38131;DHT22;23947;51.894;4.622;2023-03-19T16:52:30;9.70;1.40
38131;DHT22;23947;51.894;4.622;2023-03-19T16:54:56;9.80;1.40
38131;DHT22;23947;51.894;4.622;2023-03-19T16:57:22;9.80;1.40
38131;DHT22;23947;51.894;4.622;2023-03-19T16:59:48;9.70;1.40
38131;DHT22;23947;51.894;4.622;2023-03-19T17:02:15;9.60;1.40
38131;DHT22;23947;51.894;4.622;2023-03-19T17:04:41;9.70;1.40
38131;DHT22;23947;51.894;4.622;2023-03-19T17:07:07;9.70;1.40
38131;DHT22;23947;51.894;4.622;2023-03-19T17:09:32;9.70;1.40
38131;DHT22;23947;51.894;4.622;2023-03-19T17:11:58;9.60;1.40
38131;DHT22;23947;51.894;4.622;2023-03-19T17:14:24;9.60;1.40
38131;DHT22;23947;51.894;4.622;2023-03-19T17:16:49;9.60;1.40
38131;DHT22;23947;51.894;4.622;2023-03-19T17:19:31;9.60;1.40
38131;DHT22;23947;51.894;4.622;2023-03-19T17:21:58;9.60;1.40
38131;DHT22;23947;51.894;4.622;2023-03-19T17:26:49;9.50;1.40
38131;DHT22;23947;51.894;4.622;2023-03-19T17:29:15;9.60;1.40
38131;DHT22;23947;51.894;4.622;2023-03-19T17:31:40;9.50;1.40
38131;DHT22;23947;51.894;4.622;2023-03-19T17:34:12;9.50;1.40
38131;DHT22;23947;51.894;4.622;2023-03-19T17:36:41;9.50;1.40
38131;DHT22;23947;51.894;4.622;2023-03-19T17:39:09;9.50;1.40
38131;DHT22;23947;51.894;4.622;2023-03-19T17:41:35;9.40;1.40
38131;DHT22;23947;51.894;4.622;2023-03-19T17:44:00;9.40;1.40
38131;DHT22;23947;51.894;4.622;2023-03-19T17:46:26;9.40;1.40
38131;DHT22;23947;51.894;4.622;2023-03-19T17:48:52;9.40;1.40
38131;DHT22;23947;51.894;4.622;2023-03-19T17:51:18;9.40;1.40
38131;DHT22;23947;51.894;4.622;2023-03-19T17:53:45;9.30;1.40
38131;DHT22;23947;51.894;4.622;2023-03-19T17:56:15;9.30;1.40